createdAt,value
2023-05-10T00:04:03.793Z,89.74
2023-05-10T00:08:25.518Z,90.61
2023-05-10T00:12:47.858Z,90.23
2023-05-10T00:17:11.170Z,88.98
2023-05-10T00:21:32.888Z,89.01
2023-05-10T00:25:54.622Z,89.17
2023-05-10T00:30:16.643Z,90.35
2023-05-10T00:34:39.970Z,89.18
2023-05-10T00:39:01.699Z,89.67
2023-05-10T00:43:23.400Z,89.16
2023-05-10T00:47:45.418Z,89.71
2023-05-10T00:52:09.040Z,89.06
2023-05-10T00:56:31.011Z,90.00
2023-05-10T01:00:53.173Z,90.16
2023-05-10T01:05:15.615Z,89.83
2023-05-10T01:09:38.869Z,90.90
2023-05-10T01:14:00.634Z,90.64
2023-05-10T01:18:22.805Z,91.09
2023-05-10T01:23:11.665Z,90.85
2023-05-10T01:28:01.586Z,89.64
2023-05-10T01:32:32.110Z,89.96
2023-05-10T01:37:02.873Z,90.80
2023-05-10T01:41:33.787Z,90.10
2023-05-10T01:46:03.425Z,90.84
2023-05-10T01:50:30.094Z,89.57
2023-05-10T01:55:01.355Z,90.16
2023-05-10T01:59:24.179Z,90.24
2023-05-10T02:03:47.179Z,90.94
2023-05-10T02:08:10.881Z,90.22
2023-05-10T02:12:35.864Z,90.92
2023-05-10T02:16:59.391Z,90.53
2023-05-10T02:21:22.470Z,91.13
2023-05-10T02:25:49.019Z,90.74
2023-05-10T02:30:12.670Z,90.09
2023-05-10T02:34:34.651Z,89.22
2023-05-10T02:38:57.425Z,89.73
2023-05-10T02:43:23.947Z,88.75
2023-05-10T02:47:45.860Z,89.80
2023-05-10T02:52:09.026Z,88.32
2023-05-10T02:56:35.022Z,91.33
2023-05-10T03:00:58.186Z,90.75
2023-05-10T03:05:20.219Z,90.32
2023-05-10T03:09:42.653Z,90.57
2023-05-10T03:14:13.889Z,90.71
2023-05-10T03:18:44.951Z,90.07
2023-05-10T03:23:14.401Z,90.26
2023-05-10T03:27:37.236Z,90.11
2023-05-10T03:31:59.355Z,89.75
2023-05-10T03:36:22.397Z,89.27
2023-05-10T03:40:44.090Z,89.93
2023-05-10T03:45:06.978Z,89.61
2023-05-10T03:49:28.703Z,90.01
2023-05-10T03:53:51.765Z,89.47
2023-05-10T03:58:13.492Z,90.47
2023-05-10T04:02:35.504Z,91.44
2023-05-10T04:06:57.287Z,90.94
2023-05-10T04:11:20.445Z,90.01
2023-05-10T04:15:42.232Z,90.53
2023-05-10T04:20:04.837Z,90.13
2023-05-10T04:24:26.552Z,89.57
2023-05-10T04:28:49.878Z,90.13
2023-05-10T04:33:11.648Z,88.41
2023-05-10T04:37:33.408Z,87.80
2023-05-10T04:41:55.106Z,87.83
2023-05-10T04:46:18.284Z,86.64
2023-05-10T04:50:40.309Z,86.69
2023-05-10T04:55:02.032Z,85.92
2023-05-10T04:59:23.786Z,85.47
2023-05-10T05:03:47.035Z,86.90
2023-05-10T05:08:08.966Z,86.47
2023-05-10T05:12:30.730Z,85.46
2023-05-10T05:16:52.589Z,87.31
2023-05-10T05:21:16.068Z,88.06
2023-05-10T05:25:37.801Z,87.09
2023-05-10T05:29:59.565Z,87.85
2023-05-10T05:34:21.302Z,87.43
2023-05-10T05:38:44.377Z,87.19
2023-05-10T05:43:06.098Z,85.91
2023-05-10T05:47:27.970Z,86.41
2023-05-10T05:51:49.680Z,85.91
2023-05-10T05:56:12.740Z,85.85
2023-05-10T06:00:35.054Z,84.80
2023-05-10T06:04:56.780Z,85.97
2023-05-10T06:09:18.535Z,86.50
2023-05-10T06:13:41.901Z,86.16
2023-05-10T06:18:03.968Z,86.37
2023-05-10T06:22:25.766Z,85.85
2023-05-10T06:26:47.459Z,85.38
2023-05-10T06:31:10.540Z,85.00
2023-05-10T06:35:32.363Z,85.64
2023-05-10T06:39:54.107Z,85.86
2023-05-10T06:44:17.142Z,86.29
2023-05-10T06:48:40.286Z,86.15
2023-05-10T06:53:02.301Z,86.13
2023-05-10T07:01:52.115Z,86.07
2023-05-10T07:06:29.193Z,86.54
2023-05-10T07:10:59.766Z,86.33
2023-05-10T07:15:21.659Z,86.48
2023-05-10T07:19:43.389Z,85.57
2023-05-10T07:24:06.741Z,86.06
2023-05-10T07:28:28.539Z,85.37
2023-05-10T07:32:50.522Z,84.33
2023-05-10T07:37:12.350Z,83.42
2023-05-10T07:41:36.050Z,83.16
2023-05-10T07:45:58.580Z,81.80
2023-05-10T07:50:20.429Z,81.21
2023-05-10T07:54:42.182Z,82.71
2023-05-10T07:59:05.432Z,80.29
2023-05-10T08:03:27.381Z,81.55
2023-05-10T08:07:49.444Z,80.68
2023-05-10T08:12:11.183Z,82.59
2023-05-10T08:16:34.362Z,81.04
2023-05-10T08:20:56.152Z,80.61
2023-05-10T08:25:18.117Z,81.62
2023-05-10T08:29:49.632Z,81.31
2023-05-10T08:34:13.369Z,82.99
2023-05-10T08:38:35.111Z,79.59
2023-05-10T08:43:04.083Z,77.33
2023-05-10T08:47:26.533Z,77.42
2023-05-10T08:51:52.733Z,77.54
2023-05-10T08:56:14.526Z,78.62
2023-05-10T09:00:37.357Z,77.05
2023-05-10T09:04:59.166Z,74.81
2023-05-10T09:09:22.596Z,75.38
2023-05-10T09:13:45.205Z,75.67
2023-05-10T09:18:07.179Z,74.24
2023-05-10T09:22:29.017Z,73.04
2023-05-10T09:26:52.141Z,72.78
2023-05-10T09:31:13.920Z,71.79
2023-05-10T09:35:35.734Z,74.32
2023-05-10T09:39:57.445Z,73.77
2023-05-10T09:44:20.504Z,72.67
2023-05-10T09:48:44.111Z,70.01
2023-05-10T09:53:05.839Z,66.10
2023-05-10T09:57:28.209Z,65.04
2023-05-10T10:06:29.571Z,56.50
2023-05-10T10:10:52.867Z,58.64
2023-05-10T10:15:16.723Z,61.78
2023-05-10T10:19:40.512Z,62.71
2023-05-10T10:24:02.302Z,64.03
2023-05-10T10:28:34.440Z,63.92
2023-05-10T10:33:29.227Z,63.78
2023-05-10T10:37:52.728Z,63.43
2023-05-10T10:42:14.516Z,60.13
2023-05-10T10:47:00.215Z,58.34
2023-05-10T10:51:22.135Z,58.56
2023-05-10T10:55:49.551Z,57.33
2023-05-10T11:00:22.983Z,57.16
2023-05-10T11:04:44.975Z,57.52
2023-05-10T11:09:07.962Z,59.72
2023-05-10T11:13:32.543Z,58.77
2023-05-10T11:17:54.536Z,58.52
2023-05-10T11:22:16.264Z,55.85
2023-05-10T11:26:38.612Z,56.92
2023-05-10T11:31:01.784Z,57.90
2023-05-10T11:35:23.745Z,59.39
2023-05-10T11:39:47.345Z,57.57
2023-05-10T11:44:10.089Z,56.59
2023-05-10T11:48:33.437Z,57.61
2023-05-10T11:52:56.422Z,53.68
2023-05-10T11:57:19.272Z,55.08
2023-05-10T12:01:41.194Z,53.78
2023-05-10T12:06:04.962Z,54.78
2023-05-10T12:10:27.497Z,56.01
2023-05-10T12:14:51.212Z,55.74
2023-05-10T12:19:13.022Z,52.57
2023-05-10T12:23:36.760Z,52.04
2023-05-10T12:27:59.653Z,52.13
2023-05-10T12:32:21.555Z,51.69
2023-05-10T12:36:43.271Z,53.06
2023-05-10T12:41:08.225Z,53.14
2023-05-10T12:45:30.210Z,53.89
2023-05-10T12:49:51.933Z,54.55
2023-05-10T12:54:13.814Z,55.89
2023-05-10T12:58:37.108Z,56.08
2023-05-10T13:02:58.915Z,57.80
2023-05-10T13:07:20.715Z,56.24
2023-05-10T13:11:42.634Z,54.53
2023-05-10T13:16:06.658Z,53.86
2023-05-10T13:20:28.531Z,52.73
2023-05-10T13:24:50.347Z,50.58
2023-05-10T13:29:12.131Z,51.33
2023-05-10T13:33:35.353Z,51.17
2023-05-10T13:37:57.122Z,53.16
2023-05-10T13:42:19.100Z,51.75
2023-05-10T13:46:41.199Z,52.05
2023-05-10T13:51:04.422Z,50.03
2023-05-10T13:55:26.193Z,48.08
2023-05-10T13:59:47.989Z,48.26
2023-05-10T14:04:09.903Z,49.98
2023-05-10T14:08:32.999Z,51.24
2023-05-10T14:12:54.760Z,51.49
2023-05-10T14:17:16.492Z,51.15
2023-05-10T14:21:38.512Z,53.13
2023-05-10T14:26:01.842Z,50.80
2023-05-10T14:30:23.719Z,50.20
2023-05-10T14:34:45.474Z,52.45
2023-05-10T14:39:07.294Z,51.74
2023-05-10T14:43:31.615Z,53.70
2023-05-10T14:47:53.463Z,51.85
2023-05-10T14:52:15.282Z,53.07
2023-05-10T14:56:37.090Z,53.51
2023-05-10T15:01:00.205Z,53.15
2023-05-10T15:05:22.608Z,51.90
2023-05-10T15:09:45.149Z,51.84
2023-05-10T15:14:06.936Z,51.54
2023-05-10T15:18:30.073Z,52.84
2023-05-10T15:22:51.990Z,53.94
2023-05-10T15:27:13.769Z,55.00
2023-05-10T15:31:35.575Z,56.08
2023-05-10T15:35:58.645Z,55.00
2023-05-10T15:40:20.387Z,56.33
2023-05-10T15:44:42.122Z,57.57
2023-05-10T15:49:03.928Z,56.68
2023-05-10T15:53:27.036Z,55.52
2023-05-10T15:57:48.778Z,55.20
2023-05-10T16:02:10.610Z,55.93
2023-05-10T16:06:32.680Z,55.33
2023-05-10T16:10:56.386Z,57.14
2023-05-10T16:15:18.457Z,56.56
2023-05-10T16:19:40.333Z,57.52
2023-05-10T16:24:03.272Z,58.54
2023-05-10T16:28:26.348Z,58.29
2023-05-10T16:32:48.138Z,58.52
2023-05-10T16:37:10.039Z,60.26
2023-05-10T16:41:33.171Z,59.16
2023-05-10T16:45:56.483Z,59.15
2023-05-10T16:50:18.307Z,60.42
2023-05-10T16:54:40.324Z,58.60
2023-05-10T16:59:02.181Z,59.82
2023-05-10T17:03:25.489Z,59.89
2023-05-10T17:07:48.405Z,59.27
2023-05-10T17:12:10.522Z,58.84
2023-05-10T17:16:32.345Z,58.89
2023-05-10T17:20:55.655Z,58.96
2023-05-10T17:25:17.840Z,60.47
2023-05-10T17:29:40.013Z,59.84
2023-05-10T17:34:03.952Z,61.00
2023-05-10T17:38:28.522Z,61.09
2023-05-10T17:42:50.256Z,61.49
2023-05-10T17:47:12.096Z,62.23
2023-05-10T17:51:33.887Z,61.49
2023-05-10T17:55:56.991Z,62.87
2023-05-10T18:00:19.293Z,63.52
2023-05-10T18:04:41.179Z,63.04
2023-05-10T18:09:03.131Z,63.47
2023-05-10T18:13:26.295Z,63.53
2023-05-10T18:17:49.312Z,64.68
2023-05-10T18:22:11.299Z,65.25
2023-05-10T18:26:33.046Z,65.50
2023-05-10T18:30:56.201Z,65.17
2023-05-10T18:35:18.557Z,65.89
2023-05-10T18:39:40.634Z,65.11
2023-05-10T18:44:02.548Z,64.65
2023-05-10T18:48:25.707Z,66.20
2023-05-10T18:52:47.472Z,67.68
2023-05-10T18:57:09.314Z,67.41
2023-05-10T19:01:31.128Z,68.49
2023-05-10T19:05:54.233Z,69.35
2023-05-10T19:10:15.973Z,69.97
2023-05-10T19:14:37.685Z,70.44
2023-05-10T19:19:01.517Z,70.63
2023-05-10T19:23:29.186Z,71.35
2023-05-10T19:27:50.952Z,72.02
2023-05-10T19:32:12.724Z,70.98
2023-05-10T19:36:34.489Z,72.05
2023-05-10T19:40:58.408Z,72.76
2023-05-10T19:45:20.270Z,72.54
2023-05-10T19:49:42.208Z,72.59
2023-05-10T19:54:03.973Z,73.23
2023-05-10T19:58:27.226Z,71.99
2023-05-10T20:02:49.563Z,72.61
2023-05-10T20:07:11.451Z,72.87
2023-05-10T20:11:33.549Z,71.69
2023-05-10T20:15:57.574Z,71.82
2023-05-10T20:20:19.698Z,72.35
2023-05-10T20:24:41.633Z,73.56
2023-05-10T20:29:03.674Z,73.65
2023-05-10T20:33:26.796Z,73.70
2023-05-10T20:37:48.555Z,74.97
2023-05-10T20:42:10.355Z,74.10
2023-05-10T20:46:32.196Z,74.10
2023-05-10T20:50:55.282Z,75.34
2023-05-10T20:55:17.123Z,74.57
2023-05-10T20:59:38.936Z,74.28
2023-05-10T21:04:00.660Z,76.32
2023-05-10T21:08:23.904Z,74.21
2023-05-10T21:12:45.618Z,74.88
2023-05-10T21:17:07.477Z,75.95
2023-05-10T21:21:29.262Z,76.96
2023-05-10T21:25:52.293Z,76.77
2023-05-10T21:30:14.432Z,76.20
2023-05-10T21:34:36.340Z,76.08
2023-05-10T21:38:58.100Z,75.79
2023-05-10T21:43:21.190Z,76.86
2023-05-10T21:47:42.977Z,77.25
2023-05-10T21:52:04.827Z,77.23
2023-05-10T21:56:26.557Z,78.31
2023-05-10T22:00:49.848Z,78.57
2023-05-10T22:05:11.678Z,77.96
2023-05-10T22:09:33.378Z,78.33
2023-05-10T22:13:55.357Z,79.18
2023-05-10T22:18:18.478Z,79.73
2023-05-10T22:22:40.217Z,80.35
2023-05-10T22:27:02.454Z,80.56
2023-05-10T22:31:24.223Z,80.93
2023-05-10T22:35:47.341Z,81.44
2023-05-10T22:40:10.187Z,80.31
2023-05-10T22:44:31.888Z,81.47
2023-05-10T22:48:53.625Z,81.75
2023-05-10T22:53:16.713Z,81.87
2023-05-10T22:57:38.676Z,81.47
2023-05-10T23:02:00.754Z,80.75
2023-05-10T23:06:22.480Z,81.38
2023-05-10T23:10:45.517Z,80.59
2023-05-10T23:15:08.313Z,80.65
2023-05-10T23:19:30.014Z,79.44
2023-05-10T23:23:51.851Z,78.40
2023-05-10T23:28:15.192Z,76.99
2023-05-10T23:32:37.065Z,77.70
2023-05-10T23:36:58.803Z,75.96
2023-05-10T23:41:20.530Z,75.91
2023-05-10T23:45:43.609Z,77.48
2023-05-10T23:50:06.409Z,78.58
2023-05-10T23:54:28.210Z,79.84
2023-05-10T23:58:49.959Z,81.04
